sensor_id;sensor_type;location;lat;lon;timestamp;P1;durP1;ratioP1;P2;durP2;ratioP2
12956;SDS011;6543;48.836;10.092;2023-03-14T00:00:02;0.97;;;0.40;;
12956;SDS011;6543;48.836;10.092;2023-03-14T00:02:33;1.27;;;0.50;;
12956;SDS011;6543;48.836;10.092;2023-03-14T00:05:00;2.80;;;0.50;;
12956;SDS011;6543;48.836;10.092;2023-03-14T00:07:31;1.43;;;0.60;;
12956;SDS011;6543;48.836;10.092;2023-03-14T00:10:00;2.30;;;0.67;;
12956;SDS011;6543;48.836;10.092;2023-03-14T00:12:30;0.60;;;0.43;;
12956;SDS011;6543;48.836;10.092;2023-03-14T00:14:58;2.33;;;0.33;;
12956;SDS011;6543;48.836;10.092;2023-03-14T00:17:28;0.40;;;0.30;;
12956;SDS011;6543;48.836;10.092;2023-03-14T00:19:55;0.63;;;0.30;;
12956;SDS011;6543;48.836;10.092;2023-03-14T00:22:29;1.50;;;0.27;;
12956;SDS011;6543;48.836;10.092;2023-03-14T00:24:56;0.60;;;0.20;;
12956;SDS011;6543;48.836;10.092;2023-03-14T00:27:23;0.20;;;0.20;;
12956;SDS011;6543;48.836;10.092;2023-03-14T00:29:51;0.30;;;0.20;;
12956;SDS011;6543;48.836;10.092;2023-03-14T00:32:18;1.80;;;0.10;;
12956;SDS011;6543;48.836;10.092;2023-03-14T00:34:45;0.63;;;0.20;;
12956;SDS011;6543;48.836;10.092;2023-03-14T00:37:11;0.20;;;0.10;;
12956;SDS011;6543;48.836;10.092;2023-03-14T00:39:38;1.53;;;0.20;;
12956;SDS011;6543;48.836;10.092;2023-03-14T00:42:05;0.10;;;0.10;;
12956;SDS011;6543;48.836;10.092;2023-03-14T00:44:32;0.20;;;0.20;;
12956;SDS011;6543;48.836;10.092;2023-03-14T00:47:01;0.30;;;0.20;;
12956;SDS011;6543;48.836;10.092;2023-03-14T00:49:27;0.53;;;0.20;;
12956;SDS011;6543;48.836;10.092;2023-03-14T00:51:54;0.40;;;0.07;;
12956;SDS011;6543;48.836;10.092;2023-03-14T00:54:21;0.00;;;0.00;;
12956;SDS011;6543;48.836;10.092;2023-03-14T00:56:48;0.77;;;0.20;;
12956;SDS011;6543;48.836;10.092;2023-03-14T00:59:15;1.03;;;0.30;;
12956;SDS011;6543;48.836;10.092;2023-03-14T01:01:42;2.73;;;0.20;;
12956;SDS011;6543;48.836;10.092;2023-03-14T01:04:11;0.10;;;0.10;;
12956;SDS011;6543;48.836;10.092;2023-03-14T01:06:38;0.63;;;0.40;;
12956;SDS011;6543;48.836;10.092;2023-03-14T01:09:05;0.97;;;0.17;;
12956;SDS011;6543;48.836;10.092;2023-03-14T01:11:33;1.50;;;0.30;;
12956;SDS011;6543;48.836;10.092;2023-03-14T01:14:02;0.00;;;0.00;;
12956;SDS011;6543;48.836;10.092;2023-03-14T01:16:30;0.10;;;0.10;;
12956;SDS011;6543;48.836;10.092;2023-03-14T01:18:58;0.00;;;0.00;;
12956;SDS011;6543;48.836;10.092;2023-03-14T01:21:27;0.30;;;0.10;;
12956;SDS011;6543;48.836;10.092;2023-03-14T01:23:56;0.63;;;0.13;;
12956;SDS011;6543;48.836;10.092;2023-03-14T01:26:25;0.33;;;0.10;;
12956;SDS011;6543;48.836;10.092;2023-03-14T01:28:55;0.10;;;0.10;;
12956;SDS011;6543;48.836;10.092;2023-03-14T01:31:22;0.23;;;0.10;;
12956;SDS011;6543;48.836;10.092;2023-03-14T01:33:50;0.20;;;0.10;;
12956;SDS011;6543;48.836;10.092;2023-03-14T01:36:18;0.57;;;0.10;;
12956;SDS011;6543;48.836;10.092;2023-03-14T01:38:47;0.10;;;0.10;;
12956;SDS011;6543;48.836;10.092;2023-03-14T01:41:15;1.00;;;0.20;;
12956;SDS011;6543;48.836;10.092;2023-03-14T01:43:43;0.10;;;0.00;;
12956;SDS011;6543;48.836;10.092;2023-03-14T01:46:17;0.30;;;0.00;;
12956;SDS011;6543;48.836;10.092;2023-03-14T01:48:48;0.73;;;0.20;;
12956;SDS011;6543;48.836;10.092;2023-03-14T01:51:21;0.10;;;0.10;;
12956;SDS011;6543;48.836;10.092;2023-03-14T01:53:54;0.10;;;0.10;;
12956;SDS011;6543;48.836;10.092;2023-03-14T01:56:25;0.20;;;0.20;;
12956;SDS011;6543;48.836;10.092;2023-03-14T01:58:53;0.20;;;0.20;;
12956;SDS011;6543;48.836;10.092;2023-03-14T02:01:21;0.70;;;0.00;;
12956;SDS011;6543;48.836;10.092;2023-03-14T02:03:52;0.63;;;0.10;;
12956;SDS011;6543;48.836;10.092;2023-03-14T02:06:21;0.00;;;0.00;;
12956;SDS011;6543;48.836;10.092;2023-03-14T02:08:51;0.30;;;0.10;;
12956;SDS011;6543;48.836;10.092;2023-03-14T02:11:20;0.10;;;0.10;;
12956;SDS011;6543;48.836;10.092;2023-03-14T02:13:48;0.00;;;0.00;;
12956;SDS011;6543;48.836;10.092;2023-03-14T02:16:15;0.40;;;0.30;;
12956;SDS011;6543;48.836;10.092;2023-03-14T02:18:42;0.07;;;0.07;;
12956;SDS011;6543;48.836;10.092;2023-03-14T02:21:11;0.20;;;0.20;;
12956;SDS011;6543;48.836;10.092;2023-03-14T02:23:46;0.10;;;0.10;;
12956;SDS011;6543;48.836;10.092;2023-03-14T02:26:19;0.77;;;0.20;;
12956;SDS011;6543;48.836;10.092;2023-03-14T02:28:49;0.20;;;0.20;;
12956;SDS011;6543;48.836;10.092;2023-03-14T02:31:18;0.43;;;0.10;;
12956;SDS011;6543;48.836;10.092;2023-03-14T02:33:46;0.40;;;0.20;;
12956;SDS011;6543;48.836;10.092;2023-03-14T02:36:13;0.20;;;0.10;;
12956;SDS011;6543;48.836;10.092;2023-03-14T02:38:42;0.60;;;0.20;;
12956;SDS011;6543;48.836;10.092;2023-03-14T02:41:12;0.40;;;0.00;;
12956;SDS011;6543;48.836;10.092;2023-03-14T02:43:39;0.10;;;0.10;;
12956;SDS011;6543;48.836;10.092;2023-03-14T02:46:08;0.00;;;0.00;;
12956;SDS011;6543;48.836;10.092;2023-03-14T02:48:39;0.73;;;0.13;;
12956;SDS011;6543;48.836;10.092;2023-03-14T02:51:09;0.10;;;0.10;;
12956;SDS011;6543;48.836;10.092;2023-03-14T02:53:37;0.37;;;0.20;;
12956;SDS011;6543;48.836;10.092;2023-03-14T02:56:06;0.20;;;0.20;;
12956;SDS011;6543;48.836;10.092;2023-03-14T02:58:34;0.40;;;0.10;;
12956;SDS011;6543;48.836;10.092;2023-03-14T03:01:01;1.87;;;0.10;;
12956;SDS011;6543;48.836;10.092;2023-03-14T03:03:29;0.10;;;0.10;;
12956;SDS011;6543;48.836;10.092;2023-03-14T03:05:56;0.13;;;0.13;;
12956;SDS011;6543;48.836;10.092;2023-03-14T03:08:24;0.10;;;0.10;;
12956;SDS011;6543;48.836;10.092;2023-03-14T03:10:52;0.60;;;0.20;;
12956;SDS011;6543;48.836;10.092;2023-03-14T03:13:19;1.80;;;0.30;;
12956;SDS011;6543;48.836;10.092;2023-03-14T03:15:46;2.00;;;0.20;;
12956;SDS011;6543;48.836;10.092;2023-03-14T03:18:13;0.10;;;0.10;;
12956;SDS011;6543;48.836;10.092;2023-03-14T03:20:42;1.00;;;0.30;;
12956;SDS011;6543;48.836;10.092;2023-03-14T03:23:09;0.10;;;0.10;;
12956;SDS011;6543;48.836;10.092;2023-03-14T03:25:36;0.97;;;0.10;;
12956;SDS011;6543;48.836;10.092;2023-03-14T03:28:03;0.30;;;0.20;;
12956;SDS011;6543;48.836;10.092;2023-03-14T03:30:32;0.10;;;0.10;;
12956;SDS011;6543;48.836;10.092;2023-03-14T03:33:02;0.10;;;0.10;;
12956;SDS011;6543;48.836;10.092;2023-03-14T03:35:29;0.27;;;0.10;;
12956;SDS011;6543;48.836;10.092;2023-03-14T03:37:58;0.10;;;0.10;;
12956;SDS011;6543;48.836;10.092;2023-03-14T03:40:25;0.50;;;0.20;;
12956;SDS011;6543;48.836;10.092;2023-03-14T03:42:52;0.70;;;0.20;;
12956;SDS011;6543;48.836;10.092;2023-03-14T03:45:19;0.50;;;0.23;;
12956;SDS011;6543;48.836;10.092;2023-03-14T03:47:46;0.30;;;0.10;;
12956;SDS011;6543;48.836;10.092;2023-03-14T03:50:13;1.60;;;0.50;;
12956;SDS011;6543;48.836;10.092;2023-03-14T03:52:40;1.83;;;0.30;;
12956;SDS011;6543;48.836;10.092;2023-03-14T03:55:08;0.20;;;0.20;;
12956;SDS011;6543;48.836;10.092;2023-03-14T03:57:35;0.10;;;0.10;;
12956;SDS011;6543;48.836;10.092;2023-03-14T04:00:02;0.10;;;0.10;;
12956;SDS011;6543;48.836;10.092;2023-03-14T04:02:31;0.27;;;0.10;;
12956;SDS011;6543;48.836;10.092;2023-03-14T04:04:58;0.30;;;0.20;;
12956;SDS011;6543;48.836;10.092;2023-03-14T04:07:25;0.90;;;0.20;;
12956;SDS011;6543;48.836;10.092;2023-03-14T04:09:51;1.30;;;0.20;;
12956;SDS011;6543;48.836;10.092;2023-03-14T04:12:20;0.67;;;0.13;;
12956;SDS011;6543;48.836;10.092;2023-03-14T04:14:47;0.50;;;0.13;;
12956;SDS011;6543;48.836;10.092;2023-03-14T04:17:13;0.97;;;0.20;;
12956;SDS011;6543;48.836;10.092;2023-03-14T04:19:40;0.10;;;0.10;;
12956;SDS011;6543;48.836;10.092;2023-03-14T04:22:07;0.20;;;0.20;;
12956;SDS011;6543;48.836;10.092;2023-03-14T04:24:34;0.63;;;0.10;;
12956;SDS011;6543;48.836;10.092;2023-03-14T04:27:01;0.67;;;0.20;;
12956;SDS011;6543;48.836;10.092;2023-03-14T04:29:29;3.27;;;0.40;;
12956;SDS011;6543;48.836;10.092;2023-03-14T04:31:56;0.20;;;0.20;;
12956;SDS011;6543;48.836;10.092;2023-03-14T04:34:23;1.50;;;0.30;;
12956;SDS011;6543;48.836;10.092;2023-03-14T04:36:50;0.40;;;0.30;;
12956;SDS011;6543;48.836;10.092;2023-03-14T04:39:17;0.67;;;0.40;;
12956;SDS011;6543;48.836;10.092;2023-03-14T04:41:44;0.67;;;0.30;;
12956;SDS011;6543;48.836;10.092;2023-03-14T04:44:11;1.10;;;0.20;;
12956;SDS011;6543;48.836;10.092;2023-03-14T04:46:39;1.37;;;0.40;;
12956;SDS011;6543;48.836;10.092;2023-03-14T04:49:06;2.00;;;0.30;;
12956;SDS011;6543;48.836;10.092;2023-03-14T04:51:33;2.10;;;0.30;;
12956;SDS011;6543;48.836;10.092;2023-03-14T04:54:00;2.37;;;0.40;;
12956;SDS011;6543;48.836;10.092;2023-03-14T04:59:49;1.40;;;0.43;;
12956;SDS011;6543;48.836;10.092;2023-03-14T05:02:18;4.70;;;0.47;;
12956;SDS011;6543;48.836;10.092;2023-03-14T05:04:45;1.43;;;0.30;;
12956;SDS011;6543;48.836;10.092;2023-03-14T05:07:12;0.87;;;0.50;;
12956;SDS011;6543;48.836;10.092;2023-03-14T05:09:39;1.43;;;0.47;;
12956;SDS011;6543;48.836;10.092;2023-03-14T05:12:06;1.37;;;0.70;;
12956;SDS011;6543;48.836;10.092;2023-03-14T05:14:33;1.37;;;0.30;;
12956;SDS011;6543;48.836;10.092;2023-03-14T05:17:00;0.93;;;0.50;;
12956;SDS011;6543;48.836;10.092;2023-03-14T05:19:28;1.43;;;0.47;;
12956;SDS011;6543;48.836;10.092;2023-03-14T05:21:55;1.67;;;0.70;;
12956;SDS011;6543;48.836;10.092;2023-03-14T05:24:22;1.80;;;0.60;;
12956;SDS011;6543;48.836;10.092;2023-03-14T05:26:49;2.10;;;0.70;;
12956;SDS011;6543;48.836;10.092;2023-03-14T05:29:16;3.43;;;0.80;;
12956;SDS011;6543;48.836;10.092;2023-03-14T05:31:43;1.17;;;0.30;;
12956;SDS011;6543;48.836;10.092;2023-03-14T05:34:10;3.83;;;0.60;;
12956;SDS011;6543;48.836;10.092;2023-03-14T05:36:39;2.07;;;0.53;;
12956;SDS011;6543;48.836;10.092;2023-03-14T05:39:06;3.87;;;0.60;;
12956;SDS011;6543;48.836;10.092;2023-03-14T05:41:32;4.67;;;0.80;;
12956;SDS011;6543;48.836;10.092;2023-03-14T05:44:00;3.20;;;0.50;;
12956;SDS011;6543;48.836;10.092;2023-03-14T05:46:27;3.67;;;0.50;;
12956;SDS011;6543;48.836;10.092;2023-03-14T05:48:55;1.37;;;0.50;;
12956;SDS011;6543;48.836;10.092;2023-03-14T05:51:22;0.63;;;0.33;;
12956;SDS011;6543;48.836;10.092;2023-03-14T05:53:50;2.30;;;0.90;;
12956;SDS011;6543;48.836;10.092;2023-03-14T05:56:17;3.83;;;0.70;;
12956;SDS011;6543;48.836;10.092;2023-03-14T05:58:45;2.50;;;0.57;;
12956;SDS011;6543;48.836;10.092;2023-03-14T06:01:11;2.17;;;0.60;;
12956;SDS011;6543;48.836;10.092;2023-03-14T06:03:38;5.00;;;0.87;;
12956;SDS011;6543;48.836;10.092;2023-03-14T06:06:05;1.73;;;0.80;;
12956;SDS011;6543;48.836;10.092;2023-03-14T06:08:33;1.67;;;0.50;;
12956;SDS011;6543;48.836;10.092;2023-03-14T06:11:03;5.60;;;0.87;;
12956;SDS011;6543;48.836;10.092;2023-03-14T06:13:30;2.77;;;0.90;;
12956;SDS011;6543;48.836;10.092;2023-03-14T06:15:57;2.20;;;0.70;;
12956;SDS011;6543;48.836;10.092;2023-03-14T06:18:24;3.63;;;0.83;;
12956;SDS011;6543;48.836;10.092;2023-03-14T06:20:53;3.07;;;0.90;;
12956;SDS011;6543;48.836;10.092;2023-03-14T06:23:20;3.80;;;1.20;;
12956;SDS011;6543;48.836;10.092;2023-03-14T06:25:47;1.53;;;0.87;;
12956;SDS011;6543;48.836;10.092;2023-03-14T06:28:16;2.03;;;1.07;;
12956;SDS011;6543;48.836;10.092;2023-03-14T06:30:42;0.80;;;0.80;;
12956;SDS011;6543;48.836;10.092;2023-03-14T06:33:09;1.60;;;0.30;;
12956;SDS011;6543;48.836;10.092;2023-03-14T06:35:36;1.47;;;0.40;;
12956;SDS011;6543;48.836;10.092;2023-03-14T06:38:03;2.63;;;0.50;;
12956;SDS011;6543;48.836;10.092;2023-03-14T06:40:30;1.77;;;0.60;;
12956;SDS011;6543;48.836;10.092;2023-03-14T06:42:57;2.20;;;0.60;;
12956;SDS011;6543;48.836;10.092;2023-03-14T06:45:25;1.37;;;0.50;;
12956;SDS011;6543;48.836;10.092;2023-03-14T06:47:52;2.37;;;0.67;;
12956;SDS011;6543;48.836;10.092;2023-03-14T06:50:19;3.10;;;1.03;;
12956;SDS011;6543;48.836;10.092;2023-03-14T06:52:47;1.37;;;0.67;;
12956;SDS011;6543;48.836;10.092;2023-03-14T06:55:14;2.37;;;0.73;;
12956;SDS011;6543;48.836;10.092;2023-03-14T06:57:41;1.27;;;0.33;;
12956;SDS011;6543;48.836;10.092;2023-03-14T07:00:10;3.87;;;0.60;;
12956;SDS011;6543;48.836;10.092;2023-03-14T07:02:39;5.20;;;0.77;;
12956;SDS011;6543;48.836;10.092;2023-03-14T07:05:06;1.80;;;0.50;;
12956;SDS011;6543;48.836;10.092;2023-03-14T07:07:35;0.70;;;0.50;;
12956;SDS011;6543;48.836;10.092;2023-03-14T07:10:03;2.17;;;0.63;;
12956;SDS011;6543;48.836;10.092;2023-03-14T07:12:32;3.37;;;0.80;;
12956;SDS011;6543;48.836;10.092;2023-03-14T07:14:59;5.63;;;0.63;;
12956;SDS011;6543;48.836;10.092;2023-03-14T07:17:26;1.13;;;0.60;;
12956;SDS011;6543;48.836;10.092;2023-03-14T07:19:54;2.67;;;1.47;;
12956;SDS011;6543;48.836;10.092;2023-03-14T07:22:21;2.07;;;0.77;;
12956;SDS011;6543;48.836;10.092;2023-03-14T07:24:48;3.33;;;0.90;;
12956;SDS011;6543;48.836;10.092;2023-03-14T07:27:15;5.80;;;1.17;;
12956;SDS011;6543;48.836;10.092;2023-03-14T07:29:41;5.83;;;1.20;;
12956;SDS011;6543;48.836;10.092;2023-03-14T07:32:08;2.57;;;0.70;;
12956;SDS011;6543;48.836;10.092;2023-03-14T07:34:39;1.13;;;0.60;;
12956;SDS011;6543;48.836;10.092;2023-03-14T07:37:08;1.30;;;0.40;;
12956;SDS011;6543;48.836;10.092;2023-03-14T07:39:35;1.20;;;0.60;;
12956;SDS011;6543;48.836;10.092;2023-03-14T07:42:02;1.47;;;0.60;;
12956;SDS011;6543;48.836;10.092;2023-03-14T07:44:29;1.93;;;0.87;;
12956;SDS011;6543;48.836;10.092;2023-03-14T07:46:56;2.07;;;0.80;;
12956;SDS011;6543;48.836;10.092;2023-03-14T07:49:24;2.78;;;0.50;;
12956;SDS011;6543;48.836;10.092;2023-03-14T07:51:52;1.80;;;0.60;;
12956;SDS011;6543;48.836;10.092;2023-03-14T07:54:20;4.47;;;1.30;;
12956;SDS011;6543;48.836;10.092;2023-03-14T07:56:48;0.70;;;0.50;;
12956;SDS011;6543;48.836;10.092;2023-03-14T07:59:16;1.50;;;0.63;;
12956;SDS011;6543;48.836;10.092;2023-03-14T08:01:43;3.03;;;0.30;;
12956;SDS011;6543;48.836;10.092;2023-03-14T08:04:11;1.00;;;0.60;;
12956;SDS011;6543;48.836;10.092;2023-03-14T08:06:37;6.47;;;1.10;;
12956;SDS011;6543;48.836;10.092;2023-03-14T08:09:04;1.03;;;0.70;;
12956;SDS011;6543;48.836;10.092;2023-03-14T08:11:33;1.80;;;0.50;;
12956;SDS011;6543;48.836;10.092;2023-03-14T08:14:00;1.67;;;0.70;;
12956;SDS011;6543;48.836;10.092;2023-03-14T08:16:27;2.50;;;1.00;;
12956;SDS011;6543;48.836;10.092;2023-03-14T08:18:54;1.90;;;0.60;;
12956;SDS011;6543;48.836;10.092;2023-03-14T08:21:22;1.23;;;0.33;;
12956;SDS011;6543;48.836;10.092;2023-03-14T08:23:54;0.87;;;0.40;;
12956;SDS011;6543;48.836;10.092;2023-03-14T08:26:29;1.20;;;0.60;;
12956;SDS011;6543;48.836;10.092;2023-03-14T08:32:03;5.33;;;0.70;;
12956;SDS011;6543;48.836;10.092;2023-03-14T08:37:51;1.67;;;0.60;;
12956;SDS011;6543;48.836;10.092;2023-03-14T08:40:18;1.27;;;0.60;;
12956;SDS011;6543;48.836;10.092;2023-03-14T08:46:11;4.13;;;1.60;;
12956;SDS011;6543;48.836;10.092;2023-03-14T08:48:38;1.60;;;0.80;;
12956;SDS011;6543;48.836;10.092;2023-03-14T08:51:06;0.90;;;0.80;;
12956;SDS011;6543;48.836;10.092;2023-03-14T08:53:35;3.43;;;1.50;;
12956;SDS011;6543;48.836;10.092;2023-03-14T08:56:02;0.70;;;0.70;;
12956;SDS011;6543;48.836;10.092;2023-03-14T08:58:31;3.47;;;1.00;;
12956;SDS011;6543;48.836;10.092;2023-03-14T09:00:58;2.30;;;1.10;;
12956;SDS011;6543;48.836;10.092;2023-03-14T09:03:26;3.47;;;1.57;;
12956;SDS011;6543;48.836;10.092;2023-03-14T09:05:53;5.63;;;2.17;;
12956;SDS011;6543;48.836;10.092;2023-03-14T09:08:20;1.60;;;1.10;;
12956;SDS011;6543;48.836;10.092;2023-03-14T09:10:47;3.50;;;0.70;;
12956;SDS011;6543;48.836;10.092;2023-03-14T09:13:14;0.67;;;0.67;;
12956;SDS011;6543;48.836;10.092;2023-03-14T09:15:41;0.87;;;0.70;;
12956;SDS011;6543;48.836;10.092;2023-03-14T09:18:08;1.77;;;0.80;;
12956;SDS011;6543;48.836;10.092;2023-03-14T09:20:37;2.17;;;1.20;;
12956;SDS011;6543;48.836;10.092;2023-03-14T09:23:04;0.93;;;0.57;;
12956;SDS011;6543;48.836;10.092;2023-03-14T09:25:31;2.17;;;1.17;;
12956;SDS011;6543;48.836;10.092;2023-03-14T09:27:57;1.40;;;0.60;;
12956;SDS011;6543;48.836;10.092;2023-03-14T09:30:24;2.07;;;0.50;;
12956;SDS011;6543;48.836;10.092;2023-03-14T09:32:51;0.70;;;0.40;;
12956;SDS011;6543;48.836;10.092;2023-03-14T09:35:18;2.00;;;0.70;;
12956;SDS011;6543;48.836;10.092;2023-03-14T09:37:48;1.87;;;0.60;;
12956;SDS011;6543;48.836;10.092;2023-03-14T09:40:15;0.83;;;0.50;;
12956;SDS011;6543;48.836;10.092;2023-03-14T09:42:45;1.80;;;0.80;;
12956;SDS011;6543;48.836;10.092;2023-03-14T09:45:15;2.10;;;0.40;;
12956;SDS011;6543;48.836;10.092;2023-03-14T09:47:47;0.77;;;0.47;;
12956;SDS011;6543;48.836;10.092;2023-03-14T09:50:15;1.37;;;0.53;;
12956;SDS011;6543;48.836;10.092;2023-03-14T09:52:42;1.33;;;0.60;;
12956;SDS011;6543;48.836;10.092;2023-03-14T09:55:14;1.03;;;0.40;;
12956;SDS011;6543;48.836;10.092;2023-03-14T09:57:43;1.07;;;0.67;;
12956;SDS011;6543;48.836;10.092;2023-03-14T10:00:14;1.33;;;0.53;;
12956;SDS011;6543;48.836;10.092;2023-03-14T10:02:46;1.07;;;0.37;;
12956;SDS011;6543;48.836;10.092;2023-03-14T10:05:19;0.87;;;0.23;;
12956;SDS011;6543;48.836;10.092;2023-03-14T10:07:50;0.67;;;0.30;;
12956;SDS011;6543;48.836;10.092;2023-03-14T10:10:20;0.97;;;0.47;;
12956;SDS011;6543;48.836;10.092;2023-03-14T10:12:54;1.60;;;0.33;;
12956;SDS011;6543;48.836;10.092;2023-03-14T10:15:24;1.07;;;0.40;;
12956;SDS011;6543;48.836;10.092;2023-03-14T10:17:53;1.10;;;0.40;;
12956;SDS011;6543;48.836;10.092;2023-03-14T10:20:27;0.40;;;0.20;;
12956;SDS011;6543;48.836;10.092;2023-03-14T10:22:59;1.07;;;0.30;;
12956;SDS011;6543;48.836;10.092;2023-03-14T10:25:32;0.60;;;0.37;;
12956;SDS011;6543;48.836;10.092;2023-03-14T10:28:00;0.50;;;0.40;;
12956;SDS011;6543;48.836;10.092;2023-03-14T10:30:33;0.80;;;0.60;;
12956;SDS011;6543;48.836;10.092;2023-03-14T10:33:09;0.90;;;0.70;;
12956;SDS011;6543;48.836;10.092;2023-03-14T10:35:38;0.40;;;0.30;;
12956;SDS011;6543;48.836;10.092;2023-03-14T10:38:11;1.13;;;0.50;;
12956;SDS011;6543;48.836;10.092;2023-03-14T10:40:45;1.93;;;0.50;;
12956;SDS011;6543;48.836;10.092;2023-03-14T10:43:15;0.30;;;0.20;;
12956;SDS011;6543;48.836;10.092;2023-03-14T10:45:51;0.50;;;0.30;;
12956;SDS011;6543;48.836;10.092;2023-03-14T10:48:23;0.50;;;0.40;;
12956;SDS011;6543;48.836;10.092;2023-03-14T10:50:57;0.77;;;0.37;;
12956;SDS011;6543;48.836;10.092;2023-03-14T10:53:28;0.33;;;0.20;;
12956;SDS011;6543;48.836;10.092;2023-03-14T10:56:03;0.37;;;0.30;;
12956;SDS011;6543;48.836;10.092;2023-03-14T10:58:33;0.67;;;0.30;;
12956;SDS011;6543;48.836;10.092;2023-03-14T11:04:12;0.27;;;0.27;;
12956;SDS011;6543;48.836;10.092;2023-03-14T11:06:46;1.03;;;0.30;;
12956;SDS011;6543;48.836;10.092;2023-03-14T11:09:21;4.97;;;0.40;;
12956;SDS011;6543;48.836;10.092;2023-03-14T11:11:54;1.30;;;0.57;;
12956;SDS011;6543;48.836;10.092;2023-03-14T11:14:26;0.97;;;0.50;;
12956;SDS011;6543;48.836;10.092;2023-03-14T11:17:02;0.87;;;0.50;;
12956;SDS011;6543;48.836;10.092;2023-03-14T11:22:39;2.47;;;0.70;;
12956;SDS011;6543;48.836;10.092;2023-03-14T11:25:14;1.80;;;0.60;;
12956;SDS011;6543;48.836;10.092;2023-03-14T11:27:59;0.67;;;0.40;;
12956;SDS011;6543;48.836;10.092;2023-03-14T11:30:42;0.50;;;0.30;;
12956;SDS011;6543;48.836;10.092;2023-03-14T11:33:21;0.57;;;0.40;;
12956;SDS011;6543;48.836;10.092;2023-03-14T11:35:53;0.30;;;0.30;;
12956;SDS011;6543;48.836;10.092;2023-03-14T11:38:28;1.00;;;0.37;;
12956;SDS011;6543;48.836;10.092;2023-03-14T11:40:59;0.23;;;0.20;;
12956;SDS011;6543;48.836;10.092;2023-03-14T11:43:29;0.43;;;0.30;;
12956;SDS011;6543;48.836;10.092;2023-03-14T11:46:05;0.33;;;0.27;;
12956;SDS011;6543;48.836;10.092;2023-03-14T11:48:40;0.37;;;0.20;;
12956;SDS011;6543;48.836;10.092;2023-03-14T11:51:13;4.83;;;0.40;;
12956;SDS011;6543;48.836;10.092;2023-03-14T11:53:48;0.47;;;0.20;;
12956;SDS011;6543;48.836;10.092;2023-03-14T11:56:24;0.20;;;0.20;;
12956;SDS011;6543;48.836;10.092;2023-03-14T11:58:57;0.10;;;0.10;;
12956;SDS011;6543;48.836;10.092;2023-03-14T12:01:33;1.10;;;0.40;;
12956;SDS011;6543;48.836;10.092;2023-03-14T12:04:09;0.40;;;0.30;;
12956;SDS011;6543;48.836;10.092;2023-03-14T12:06:48;0.50;;;0.50;;
12956;SDS011;6543;48.836;10.092;2023-03-14T12:09:36;0.53;;;0.53;;
12956;SDS011;6543;48.836;10.092;2023-03-14T12:12:04;0.47;;;0.47;;
12956;SDS011;6543;48.836;10.092;2023-03-14T12:14:37;1.10;;;0.87;;
12956;SDS011;6543;48.836;10.092;2023-03-14T12:17:17;0.80;;;0.60;;
12956;SDS011;6543;48.836;10.092;2023-03-14T12:19:46;2.43;;;0.60;;
12956;SDS011;6543;48.836;10.092;2023-03-14T12:22:22;1.80;;;0.90;;
12956;SDS011;6543;48.836;10.092;2023-03-14T12:24:59;1.43;;;0.90;;
12956;SDS011;6543;48.836;10.092;2023-03-14T12:27:45;2.27;;;0.53;;
12956;SDS011;6543;48.836;10.092;2023-03-14T12:30:23;1.63;;;0.97;;
12956;SDS011;6543;48.836;10.092;2023-03-14T12:39:14;1.77;;;0.50;;
12956;SDS011;6543;48.836;10.092;2023-03-14T12:41:51;1.87;;;0.70;;
12956;SDS011;6543;48.836;10.092;2023-03-14T12:47:26;1.00;;;0.40;;
12956;SDS011;6543;48.836;10.092;2023-03-14T12:50:14;2.00;;;0.40;;
12956;SDS011;6543;48.836;10.092;2023-03-14T12:52:49;0.30;;;0.27;;
12956;SDS011;6543;48.836;10.092;2023-03-14T12:55:43;0.47;;;0.20;;
12956;SDS011;6543;48.836;10.092;2023-03-14T12:58:14;0.50;;;0.40;;
12956;SDS011;6543;48.836;10.092;2023-03-14T13:00:51;0.30;;;0.20;;
12956;SDS011;6543;48.836;10.092;2023-03-14T13:03:25;0.60;;;0.30;;
12956;SDS011;6543;48.836;10.092;2023-03-14T13:06:02;1.80;;;0.37;;
12956;SDS011;6543;48.836;10.092;2023-03-14T13:08:37;0.90;;;0.37;;
12956;SDS011;6543;48.836;10.092;2023-03-14T13:11:06;3.57;;;0.90;;
12956;SDS011;6543;48.836;10.092;2023-03-14T13:13:37;5.93;;;1.00;;
12956;SDS011;6543;48.836;10.092;2023-03-14T13:16:10;2.77;;;0.50;;
12956;SDS011;6543;48.836;10.092;2023-03-14T13:18:43;0.30;;;0.30;;
12956;SDS011;6543;48.836;10.092;2023-03-14T13:21:13;1.00;;;0.40;;
12956;SDS011;6543;48.836;10.092;2023-03-14T13:23:53;0.40;;;0.30;;
12956;SDS011;6543;48.836;10.092;2023-03-14T13:26:22;0.10;;;0.10;;
12956;SDS011;6543;48.836;10.092;2023-03-14T13:28:53;0.30;;;0.20;;
12956;SDS011;6543;48.836;10.092;2023-03-14T13:31:21;1.10;;;0.30;;
12956;SDS011;6543;48.836;10.092;2023-03-14T13:34:01;0.27;;;0.27;;
12956;SDS011;6543;48.836;10.092;2023-03-14T13:36:33;0.20;;;0.20;;
12956;SDS011;6543;48.836;10.092;2023-03-14T13:39:03;1.03;;;0.30;;
12956;SDS011;6543;48.836;10.092;2023-03-14T13:41:37;0.20;;;0.20;;
12956;SDS011;6543;48.836;10.092;2023-03-14T13:44:05;2.27;;;0.40;;
12956;SDS011;6543;48.836;10.092;2023-03-14T13:46:34;1.30;;;0.60;;
12956;SDS011;6543;48.836;10.092;2023-03-14T13:49:03;0.50;;;0.40;;
12956;SDS011;6543;48.836;10.092;2023-03-14T13:51:31;1.50;;;0.80;;
12956;SDS011;6543;48.836;10.092;2023-03-14T13:53:59;0.67;;;0.67;;
12956;SDS011;6543;48.836;10.092;2023-03-14T13:56:28;0.87;;;0.63;;
12956;SDS011;6543;48.836;10.092;2023-03-14T13:58:57;2.50;;;0.77;;
12956;SDS011;6543;48.836;10.092;2023-03-14T14:01:25;1.00;;;0.60;;
12956;SDS011;6543;48.836;10.092;2023-03-14T14:03:54;2.10;;;0.80;;
12956;SDS011;6543;48.836;10.092;2023-03-14T14:06:26;0.37;;;0.37;;
12956;SDS011;6543;48.836;10.092;2023-03-14T14:08:56;0.20;;;0.20;;
12956;SDS011;6543;48.836;10.092;2023-03-14T14:11:30;0.90;;;0.50;;
12956;SDS011;6543;48.836;10.092;2023-03-14T14:14:04;0.83;;;0.47;;
12956;SDS011;6543;48.836;10.092;2023-03-14T14:16:34;0.67;;;0.30;;
12956;SDS011;6543;48.836;10.092;2023-03-14T14:19:01;0.30;;;0.20;;
12956;SDS011;6543;48.836;10.092;2023-03-14T14:21:30;0.77;;;0.40;;
12956;SDS011;6543;48.836;10.092;2023-03-14T14:23:57;1.10;;;0.47;;
12956;SDS011;6543;48.836;10.092;2023-03-14T14:26:25;1.20;;;0.30;;
12956;SDS011;6543;48.836;10.092;2023-03-14T14:29:00;2.10;;;0.40;;
12956;SDS011;6543;48.836;10.092;2023-03-14T14:31:29;0.67;;;0.20;;
12956;SDS011;6543;48.836;10.092;2023-03-14T14:33:56;1.33;;;0.60;;
12956;SDS011;6543;48.836;10.092;2023-03-14T14:36:25;1.90;;;0.50;;
12956;SDS011;6543;48.836;10.092;2023-03-14T14:39:00;1.43;;;0.40;;
12956;SDS011;6543;48.836;10.092;2023-03-14T14:41:32;2.20;;;0.57;;
12956;SDS011;6543;48.836;10.092;2023-03-14T14:44:01;1.87;;;0.73;;
12956;SDS011;6543;48.836;10.092;2023-03-14T14:46:30;2.40;;;0.47;;
12956;SDS011;6543;48.836;10.092;2023-03-14T14:49:02;1.50;;;0.50;;
12956;SDS011;6543;48.836;10.092;2023-03-14T14:51:33;2.10;;;0.50;;
12956;SDS011;6543;48.836;10.092;2023-03-14T14:54:11;1.50;;;0.60;;
12956;SDS011;6543;48.836;10.092;2023-03-14T14:56:45;0.50;;;0.50;;
12956;SDS011;6543;48.836;10.092;2023-03-14T14:59:18;0.27;;;0.27;;
12956;SDS011;6543;48.836;10.092;2023-03-14T15:01:48;1.23;;;0.40;;
12956;SDS011;6543;48.836;10.092;2023-03-14T15:04:16;1.60;;;0.50;;
12956;SDS011;6543;48.836;10.092;2023-03-14T15:06:43;2.83;;;0.50;;
12956;SDS011;6543;48.836;10.092;2023-03-14T15:09:14;3.93;;;0.70;;
12956;SDS011;6543;48.836;10.092;2023-03-14T15:11:42;1.27;;;0.60;;
12956;SDS011;6543;48.836;10.092;2023-03-14T15:14:10;6.47;;;0.67;;
12956;SDS011;6543;48.836;10.092;2023-03-14T15:16:37;2.13;;;0.40;;
12956;SDS011;6543;48.836;10.092;2023-03-14T15:19:09;1.77;;;0.63;;
12956;SDS011;6543;48.836;10.092;2023-03-14T15:21:41;3.73;;;1.00;;
12956;SDS011;6543;48.836;10.092;2023-03-14T15:24:09;4.83;;;0.50;;
12956;SDS011;6543;48.836;10.092;2023-03-14T15:26:37;2.33;;;0.57;;
12956;SDS011;6543;48.836;10.092;2023-03-14T15:29:04;1.10;;;0.80;;